Accueil
METAR-TAF:

METAR-TAF

Aéroports :

Rajahmundry, Inde

latitude: 17-06-37N, longitude: 81-49-06E, altitude: 46 m

Observation

Le bulletin a été fait il y a 6 heures et 45 minutes, à 13:00 UTC
Vent 9 kt de sud-ouest
Température 33°C
Humidité 53%
Pression 1008 hPa
Visibilité: 6000 m

METAR: VORY 291300Z 22009KT 6000 NSC 33/22 Q1008 NOSIG

Heure: 01:15 (19:45 UTC)

Prévision

Le bulletin a été fait il y a 8 heures et 45 minutes, à 11:00 UTC
Prévision valable du 29 à 12 UTC au 29 à 21 UTC
Vent 8 kt de ouest/sud-ouest
Visibilité: 6000 m
Nuages épars à une hauteur de 2000 ft
Nuages épars à une hauteur de 10000 ft

TAF: VORY 291100Z 2912/2921 25008KT 6000 SCT020 SCT100

Observations et prévisions météorologiques de plus de 4000 aéroports (messages METAR et TAF).

Les stations disponibles sont représentées par des disques jaunes et rouges sur la carte.

Passer la souris dessus pour voir le nom de la station.

Cliquer dessus pour voir les observations et prévisions météorologiques.

Pour changer de carte: cliquez sur les boutons verts avec une croix noire pour zoomer, sur le bouton vert avec un tiret pour effectuer un zoom arrière, ou sur les flèches vertes pour les cartes adjacentes.


METAR-TAF: